This is the latest recevied weather packets stored in our database for station/object TG8AKV-17. If no packets are shown the sender has not sent any weather packets the latest 10 day(s).
| Time | Temp. | Humidity | Pressure | Rain* | Wind** | Luminosity | Snow |
|---|---|---|---|---|---|---|---|
| 1777569156 | 19.44° C | 60% | 1014 hPa | 0 mm | - | - | - |
| 1777568556 | 19.44° C | 57% | 1014 hPa | 0 mm | - | - | - |
| 1777567956 | 19.44° C | 60% | 1014 hPa | 0 mm | - | - | - |
| 1777567354 | 19.44° C | 60% | 1014 hPa | 0 mm | - | - | - |
| 1777566754 | 18.89° C | 67% | 1014 hPa | 0 mm | - | - | - |
| 1777566153 | 17.78° C | 80% | 1015 hPa | 0 mm | - | - | - |
| 1777565553 | 16.11° C | 69% | 1015 hPa | 0 mm | - | - | - |
| 1777564952 | 16.11° C | 69% | 1015 hPa | 0 mm | - | - | - |
| 1777564351 | 16.11° C | 69% | 1015 hPa | 0 mm | - | - | - |
| 1777563751 | 16.11° C | 64% | 1015 hPa | 0 mm | - | - | - |
| 1777563150 | 16.11° C | 64% | 1015 hPa | 0 mm | - | - | - |
| 1777562549 | 16.11° C | 64% | 1015 hPa | 0 mm | - | - | - |
| 1777561949 | 16.11° C | 64% | 1015 hPa | 0 mm | - | - | - |
| 1777561348 | 12.78° C | 76% | 1015 hPa | 0 mm | - | - | - |
| 1777560747 | 12.78° C | 76% | 1015 hPa | 0 mm | - | - | - |
| 1777560147 | 12.78° C | 76% | 1015 hPa | 0 mm | - | - | - |
| 1777559546 | 12.78° C | 76% | 1015 hPa | 0 mm | - | - | - |
| 1777558945 | 12.78° C | 76% | 1015 hPa | 0 mm | - | - | - |
| 1777558345 | 12.78° C | 76% | 1015 hPa | 0 mm | - | - | - |
| 1777557744 | 11.11° C | 93% | 1015 hPa | 0 mm | - | - | - |
| 1777557143 | 11.11° C | 93% | 1015 hPa | 0 mm | - | - | - |
| 1777556543 | 11.11° C | 93% | 1015 hPa | 0 mm | - | - | - |
| 1777555942 | 11.11° C | 93% | 1015 hPa | 0 mm | - | - | - |
| 1777555342 | 11.11° C | 93% | 1015 hPa | 0 mm | - | - | - |
| 1777554741 | 11.11° C | 92% | 1015 hPa | 0 mm | - | - | - |
* Rain latest hour (hover to see other rain measurements)
** Current wind speed in m/s (hover to see current wind gust speed)